Startpagina
METAR-TAF:

METAR-TAF

Vliegvelden :

Bermuda, Bermuda

L.F. Wade International Airport

breedte: 32-22N, lengte: 064-41W, hoogte: 6 m

Actueel weer

Dit bericht is 30 minuten geleden gemaakt, om 09:55 UTC
Wind 7 kt uit het zuidwesten
Temperatuur 25°C
Vochtigheid 79%
Druk 1016 hPa
Zicht 10 km of meer
Weinig wolken op 1400 ft
Weinig wolken op 30000 ft

METAR: TXKF 210955Z 22007KT 9999 FEW014 FEW300 25/21 Q1016

Tijdstip: 07:25 (10:25 UTC)

Verwachting

Dit bericht is 4 uur en het 54 minuten geleden gemaakt, om 05:31 UTC
Verwachting geldig van 21 om 06 UTC tot 22 om 06 UTC
Wind 8 kt uit het zuidwesten
Zicht 10 km of meer
Weinig wolken op 2000 ft
Verspreide wolken op 4000 ft
Gebroken wolken op 30000 ft

TAF: TXKF 210531Z 2106/2206 23008KT 9999 FEW020 SCT040 BKN300

Waarnemingen en weersverwachtingen van meer dan 4000 vliegvelden (METAR en TAF).

De beschikbare stations zijn de gele en rode punten op de kaart.

Ga met uw muis naar het station om de naam te zien.

Klik dan om waarnemingen en weersverwachtingen te zien.

kaart wijzigen: klik op de groene knoppen met een zwart kruis om in te zoomen, op de groene knop met een streepje om uit te zoomen of op de groene pijlen voor aangrenzende kaarten.


METAR-TAF: